Time;durP1;ratioP1;P1;durP2;ratioP2;P2;SDS_P1;SDS_P2;PMS_P1;PMS_P2;Temp;Humidity;BMP_temperature;BMP_pressure;BME280_temperature;BME280_humidity;BME280_pressure;Samples;Min_cycle;Max_cycle;Signal;HPM_P1;HPM_P2
2023/02/15 00:01:06;;;;;;;10.70;5.22;;;;;;;10.57;100.00;101950.63;2094107;28;20090;-76
2023/02/15 00:02:29;;;;;;;14.98;5.72;;;;;;;10.60;100.00;101942.81;2093981;28;20292;-76
2023/02/15 00:03:51;;;;;;;10.60;6.53;;;;;;;10.64;100.00;101934.16;2091621;28;20512;-76
2023/02/15 00:05:13;;;;;;;10.50;6.30;;;;;;;10.70;100.00;101937.88;2092912;28;20067;-76
2023/02/15 00:06:35;;;;;;;11.23;6.07;;;;;;;10.76;100.00;101946.03;2102036;28;20040;-76
2023/02/15 00:07:57;;;;;;;12.20;6.50;;;;;;;10.82;100.00;101932.16;2092975;28;20063;-76
2023/02/15 00:09:19;;;;;;;12.07;6.45;;;;;;;10.90;100.00;101938.56;2099577;28;20117;-76
2023/02/15 00:10:40;;;;;;;11.98;5.78;;;;;;;10.99;100.00;101948.53;2088558;28;20409;-76
2023/02/15 00:12:02;;;;;;;11.95;6.28;;;;;;;11.06;100.00;101946.16;2093645;28;20048;-75
2023/02/15 00:13:25;;;;;;;9.73;6.07;;;;;;;11.15;100.00;101941.19;2102356;28;20044;-75
2023/02/15 00:14:48;;;;;;;12.27;7.00;;;;;;;11.24;100.00;101945.84;2093450;28;20048;-75
2023/02/15 00:16:13;;;;;;;10.25;5.90;;;;;;;11.29;100.00;101952.16;2087168;28;20044;-76
2023/02/15 00:17:35;;;;;;;11.65;6.55;;;;;;;11.31;100.00;101955.75;2089438;28;20039;-76
2023/02/15 00:18:56;;;;;;;10.90;5.60;;;;;;;11.36;100.00;101934.75;2086754;28;20393;-75
2023/02/15 00:20:21;;;;;;;12.77;5.80;;;;;;;11.39;100.00;101943.69;2097118;28;20052;-76
2023/02/15 00:21:43;;;;;;;10.20;5.18;;;;;;;11.44;100.00;101949.09;2090524;28;20053;-75
2023/02/15 00:23:05;;;;;;;11.45;5.30;;;;;;;11.47;100.00;101949.22;2084182;28;20040;-75
2023/02/15 00:24:26;;;;;;;11.15;5.85;;;;;;;11.51;100.00;101956.38;2085686;28;20532;-75
2023/02/15 00:25:49;;;;;;;9.52;5.45;;;;;;;11.53;100.00;101944.13;2079957;28;20096;-75
2023/02/15 00:27:11;;;;;;;9.40;5.55;;;;;;;11.55;100.00;101950.38;2091041;28;20041;-75
2023/02/15 00:28:34;;;;;;;10.05;5.43;;;;;;;11.57;100.00;101959.22;2095296;28;20062;-76
2023/02/15 00:29:57;;;;;;;10.55;5.72;;;;;;;11.57;100.00;101960.13;2093411;28;20072;-77
2023/02/15 00:31:19;;;;;;;12.10;5.78;;;;;;;11.57;100.00;101961.88;2093612;28;20040;-77
2023/02/15 00:32:41;;;;;;;;;;;;;;;11.54;100.00;101967.06;2088711;28;20045;-76
2023/02/15 00:34:03;;;;;;;9.68;5.70;;;;;;;11.55;100.00;101955.66;2088361;28;19986;-76
2023/02/15 00:35:25;;;;;;;;;;;;;;;11.52;100.00;101958.19;2097304;28;20496;-76
2023/02/15 00:36:47;;;;;;;11.07;5.20;;;;;;;11.56;100.00;101952.13;2084607;28;19943;-77
2023/02/15 00:38:10;;;;;;;10.77;5.25;;;;;;;11.58;100.00;101953.09;2085175;28;20132;-77
2023/02/15 00:39:33;;;;;;;11.77;5.93;;;;;;;11.59;100.00;101955.78;2093753;28;20045;-77
2023/02/15 00:40:54;;;;;;;9.98;5.95;;;;;;;11.62;100.00;101954.09;2087753;28;20041;-78
2023/02/15 00:42:16;;;;;;;10.32;6.00;;;;;;;11.62;100.00;101959.38;2077288;28;20041;-77
2023/02/15 00:43:38;;;;;;;11.82;5.85;;;;;;;11.59;100.00;101946.94;2082581;28;20056;-77
2023/02/15 00:45:01;;;;;;;14.43;6.60;;;;;;;11.58;100.00;101953.97;2085735;28;20044;-78
2023/02/15 00:46:23;;;;;;;10.05;5.60;;;;;;;11.55;100.00;101950.38;2085709;28;20090;-77
2023/02/15 00:47:45;;;;;;;11.02;5.70;;;;;;;11.52;100.00;101955.53;2089381;28;20126;-77
2023/02/15 00:49:08;;;;;;;10.68;6.22;;;;;;;11.51;100.00;101949.34;2091835;28;20052;-75
2023/02/15 00:50:29;;;;;;;9.52;5.68;;;;;;;11.52;100.00;101952.91;2079894;28;20045;-76
2023/02/15 00:51:54;;;;;;;11.48;5.60;;;;;;;11.48;100.00;101964.25;2085401;28;20052;-76
2023/02/15 00:53:15;;;;;;;12.10;6.45;;;;;;;11.45;100.00;101949.16;2077442;28;20103;-76
2023/02/15 00:54:38;;;;;;;9.57;5.60;;;;;;;11.43;100.00;101952.59;2074371;28;20140;-76
2023/02/15 00:56:00;;;;;;;11.75;5.57;;;;;;;11.43;100.00;101949.94;2085249;28;20049;-76
2023/02/15 00:57:23;;;;;;;12.13;5.95;;;;;;;11.40;100.00;101961.34;2088672;28;20094;-77
2023/02/15 00:58:45;;;;;;;10.88;5.50;;;;;;;11.35;100.00;101964.72;2095327;28;20033;-76
2023/02/15 01:00:10;;;;;;;11.27;5.63;;;;;;;11.26;100.00;101960.00;2071570;28;20050;-76
2023/02/15 01:01:32;;;;;;;12.95;5.65;;;;;;;11.17;100.00;101957.97;2081074;28;20521;-76
2023/02/15 01:02:54;;;;;;;10.82;5.18;;;;;;;11.09;100.00;101959.44;2093413;28;20447;-76
2023/02/15 01:04:16;;;;;;;10.68;5.03;;;;;;;11.05;100.00;101960.22;2079754;28;20119;-76
2023/02/15 01:05:38;;;;;;;11.95;5.45;;;;;;;11.01;100.00;101947.75;2091532;28;20053;-76
2023/02/15 01:07:01;;;;;;;8.25;4.57;;;;;;;10.99;100.00;101957.38;2086677;28;20051;-76
2023/02/15 01:08:22;;;;;;;10.48;4.88;;;;;;;10.97;100.00;101964.34;2083093;28;20444;-77
2023/02/15 01:09:45;;;;;;;10.00;4.90;;;;;;;10.93;100.00;101962.44;2082110;28;20555;-76
2023/02/15 01:11:08;;;;;;;11.07;4.85;;;;;;;10.90;100.00;101962.34;2088464;28;20048;-75
2023/02/15 01:12:30;;;;;;;8.00;4.57;;;;;;;10.87;100.00;101956.06;2085090;28;20087;-75
2023/02/15 01:13:54;;;;;;;9.90;5.30;;;;;;;10.87;100.00;101956.06;2082778;28;20587;-75
2023/02/15 01:15:17;;;;;;;8.43;4.55;;;;;;;10.88;100.00;101961.41;2083123;28;20082;-74
2023/02/15 01:16:40;;;;;;;14.57;6.07;;;;;;;10.91;100.00;101953.56;2081556;28;20064;-75
2023/02/15 01:18:01;;;;;;;10.25;4.72;;;;;;;10.93;100.00;101957.16;2092210;28;20040;-75
2023/02/15 01:19:23;;;;;;;8.52;4.85;;;;;;;10.93;100.00;101959.81;2079643;28;20089;-75
2023/02/15 01:20:45;;;;;;;11.55;5.47;;;;;;;10.92;100.00;101944.81;2087050;28;20079;-75
2023/02/15 01:22:07;;;;;;;9.18;4.60;;;;;;;10.92;100.00;101950.09;2090049;28;20712;-75
2023/02/15 01:23:30;;;;;;;9.80;4.70;;;;;;;10.93;100.00;101940.41;2095109;28;20504;-75
2023/02/15 01:24:52;;;;;;;9.45;4.97;;;;;;;10.96;100.00;101945.81;2078506;28;20107;-75
2023/02/15 01:26:15;;;;;;;10.88;5.00;;;;;;;10.96;100.00;101943.19;2075805;28;20425;-75
2023/02/15 01:27:38;;;;;;;11.05;4.72;;;;;;;10.94;100.00;101939.56;2084818;28;20053;-75
2023/02/15 01:29:01;;;;;;;8.82;4.85;;;;;;;10.94;100.00;101929.91;2092160;28;20045;-74
2023/02/15 01:30:24;;;;;;;9.95;4.88;;;;;;;10.95;100.00;101942.28;2095001;28;20514;-75
2023/02/15 01:31:46;;;;;;;8.70;4.75;;;;;;;10.93;100.00;101930.75;2094759;28;20155;-75
2023/02/15 01:33:17;;;;;;;10.50;5.00;;;;;;;10.90;100.00;101933.28;2085628;28;20048;-76
2023/02/15 01:34:39;;;;;;;8.40;4.82;;;;;;;10.86;100.00;101931.41;2086324;28;20582;-75
2023/02/15 01:36:01;;;;;;;10.57;5.13;;;;;;;10.83;100.00;101926.00;2083620;28;20061;-75
2023/02/15 01:37:23;;;;;;;11.15;4.70;;;;;;;10.79;100.00;101934.69;2089357;28;20052;-75
2023/02/15 01:38:46;;;;;;;7.88;4.20;;;;;;;10.76;100.00;101926.66;2094747;28;20439;-75
2023/02/15 01:40:12;;;;;;;11.70;4.70;;;;;;;10.74;100.00;101923.06;2094653;28;20048;-75
2023/02/15 01:41:34;;;;;;;9.52;4.32;;;;;;;10.74;100.00;101925.72;2091538;28;20110;-75
2023/02/15 01:42:55;;;;;;;10.55;4.53;;;;;;;10.73;100.00;101916.88;2100585;28;20047;-75
2023/02/15 01:45:00;;;;;;;9.07;4.20;;;;;;;10.74;100.00;101925.72;2093798;28;20052;-75
2023/02/15 01:46:30;;;;;;;8.73;4.38;;;;;;;10.73;100.00;101915.97;2088511;28;20072;-74
2023/02/15 01:47:56;;;;;;;9.80;5.05;;;;;;;10.78;100.00;101917.03;2094704;28;20064;-75
2023/02/15 01:49:26;;;;;;;10.07;4.90;;;;;;;10.78;100.00;101917.94;2095723;28;20048;-74
2023/02/15 01:50:50;;;;;;;10.45;4.65;;;;;;;10.81;100.00;101918.88;2086656;28;20045;-75
2023/02/15 01:52:17;;;;;;;9.35;4.82;;;;;;;10.83;100.00;101920.72;2093296;28;20134;-75
2023/02/15 01:53:44;;;;;;;9.27;4.95;;;;;;;10.81;100.00;101917.13;2085417;28;20053;-75
2023/02/15 01:55:06;;;;;;;11.27;4.80;;;;;;;10.81;100.00;101910.97;2093543;28;20045;-75
2023/02/15 01:56:32;;;;;;;11.02;4.72;;;;;;;10.77;100.00;101909.94;2094754;28;20135;-75
2023/02/15 01:57:53;;;;;;;16.83;5.72;;;;;;;10.73;100.00;101908.97;2085904;28;20147;-75
2023/02/15 01:59:22;;;;;;;11.13;5.15;;;;;;;10.72;100.00;101909.81;2083374;28;20581;-75
2023/02/15 02:00:44;;;;;;;8.50;4.85;;;;;;;10.66;100.00;101912.25;2085889;28;20049;-75
2023/02/15 02:02:11;;;;;;;9.43;5.43;;;;;;;10.64;100.00;101908.63;2085607;28;20045;-75
2023/02/15 02:03:42;;;;;;;10.68;5.65;;;;;;;10.60;100.00;101898.84;2079422;28;20037;-75
2023/02/15 02:05:07;;;;;;;11.77;5.32;;;;;;;10.57;100.00;101898.72;2094077;28;20605;-74
2023/02/15 02:06:29;;;;;;;10.77;4.60;;;;;;;10.56;100.00;101902.22;2103638;28;20048;-76
2023/02/15 02:07:54;;;;;;;8.27;4.50;;;;;;;10.55;100.00;101902.16;2095232;28;20153;-77
2023/02/15 02:09:15;;;;;;;8.85;4.95;;;;;;;10.52;100.00;101887.09;2094931;28;20052;-76
2023/02/15 02:10:37;;;;;;;8.40;4.80;;;;;;;10.50;100.00;101895.84;2078298;28;20065;-76
2023/02/15 02:12:00;;;;;;;8.75;4.25;;;;;;;10.53;100.00;101895.94;2083832;28;20090;-76
2023/02/15 02:13:22;;;;;;;8.45;4.70;;;;;;;10.51;100.00;101901.16;2094630;28;20472;-75
2023/02/15 02:14:47;;;;;;;11.00;4.65;;;;;;;10.49;100.00;101887.03;2081586;28;20089;-75
2023/02/15 02:16:14;;;;;;;10.85;4.80;;;;;;;10.51;100.00;101902.88;2092662;28;20041;-75
2023/02/15 02:17:47;;;;;;;9.65;5.00;;;;;;;10.49;100.00;101896.69;2086060;28;20175;-75
2023/02/15 02:19:46;;;;;;;9.63;4.93;;;;;;;10.46;100.00;101899.19;2087581;28;20135;-76
2023/02/15 02:21:48;;;;;;;10.32;5.13;;;;;;;10.43;100.00;101907.94;2089091;28;20501;-75
2023/02/15 02:23:39;;;;;;;10.25;4.93;;;;;;;10.43;100.00;101904.41;2090949;28;20048;-76
2023/02/15 02:25:20;;;;;;;8.63;4.50;;;;;;;10.43;100.00;101897.38;2088723;28;20037;-76
2023/02/15 02:27:19;;;;;;;9.13;5.13;;;;;;;10.44;100.00;101899.13;2080457;28;20072;-77
2023/02/15 02:29:13;;;;;;;9.88;5.40;;;;;;;10.42;100.00;101902.59;2100821;28;20473;-75
2023/02/15 02:30:52;;;;;;;10.50;5.63;;;;;;;10.39;100.00;101899.00;2091924;28;20068;-75
2023/02/15 02:32:45;;;;;;;10.45;5.03;;;;;;;10.41;100.00;101895.50;2088731;28;20102;-75
2023/02/15 02:34:16;;;;;;;10.43;4.77;;;;;;;10.39;100.00;101904.28;2094908;28;20051;-75
2023/02/15 02:35:49;;;;;;;9.50;4.45;;;;;;;10.40;100.00;101897.25;2098628;28;20296;-76
2023/02/15 02:37:20;;;;;;;9.13;5.30;;;;;;;10.40;100.00;101899.91;2087142;28;20500;-76
2023/02/15 02:38:56;;;;;;;8.65;4.82;;;;;;;10.39;100.00;101899.00;2099308;28;20770;-75
2023/02/15 02:40:21;;;;;;;11.43;5.03;;;;;;;10.42;100.00;101902.59;2104745;28;20097;-76
2023/02/15 02:41:52;;;;;;;10.15;4.80;;;;;;;10.43;100.00;101902.66;2103846;28;20139;-75
2023/02/15 02:43:20;;;;;;;12.48;5.80;;;;;;;10.43;100.00;101914.94;2086162;28;20409;-75
2023/02/15 02:44:44;;;;;;;8.57;4.65;;;;;;;10.42;100.00;101910.50;2084275;28;20045;-75
2023/02/15 02:46:13;;;;;;;12.75;5.57;;;;;;;10.38;100.00;101897.19;2085019;28;20079;-76
2023/02/15 02:47:41;;;;;;;8.98;4.97;;;;;;;10.38;100.00;101905.13;2101848;28;20446;-76
2023/02/15 02:49:04;;;;;;;10.60;4.85;;;;;;;10.39;100.00;101901.63;2092986;28;20059;-76
2023/02/15 02:50:30;;;;;;;10.63;5.35;;;;;;;10.42;100.00;101905.22;2092512;28;20097;-76
2023/02/15 02:51:59;;;;;;;12.63;5.10;;;;;;;10.46;100.00;101905.38;2094003;28;20072;-75
2023/02/15 02:53:21;;;;;;;9.50;5.30;;;;;;;10.46;100.00;101891.28;2094926;28;20036;-76
2023/02/15 02:54:44;;;;;;;11.57;5.40;;;;;;;10.44;100.00;101911.44;2085997;28;20130;-76
2023/02/15 02:56:16;;;;;;;11.13;5.80;;;;;;;10.44;100.00;101906.16;2086096;28;20467;-75
2023/02/15 02:57:47;;;;;;;10.30;5.05;;;;;;;10.42;100.00;101903.50;2078769;28;20580;-75
2023/02/15 02:59:16;;;;;;;8.30;4.70;;;;;;;10.40;100.00;101905.16;2085466;28;20041;-75
2023/02/15 03:00:44;;;;;;;13.32;5.60;;;;;;;10.44;100.00;101901.78;2093710;28;20106;-76
2023/02/15 03:02:12;;;;;;;9.52;5.35;;;;;;;10.49;100.00;101892.31;2093701;28;20074;-76
2023/02/15 03:03:39;;;;;;;10.95;5.30;;;;;;;10.54;100.00;101895.09;2094945;28;20143;-75
2023/02/15 03:05:07;;;;;;;12.85;5.10;;;;;;;10.56;100.00;101893.41;2085452;28;20078;-76
2023/02/15 03:06:37;;;;;;;10.93;5.35;;;;;;;10.58;100.00;101902.25;2085348;28;20106;-77
2023/02/15 03:08:05;;;;;;;11.90;5.50;;;;;;;10.57;100.00;101890.78;2088921;28;20037;-77
2023/02/15 03:09:41;;;;;;;10.30;5.40;;;;;;;10.58;100.00;101899.63;2103426;28;20044;-77
2023/02/15 03:11:05;;;;;;;11.82;5.90;;;;;;;10.56;100.00;101888.13;2095846;28;20052;-77
2023/02/15 03:12:29;;;;;;;9.90;5.18;;;;;;;10.57;100.00;101904.00;2093492;28;20530;-77
2023/02/15 03:13:53;;;;;;;11.18;6.00;;;;;;;10.58;100.00;101907.53;2094527;28;20048;-77
2023/02/15 03:15:18;;;;;;;10.15;5.95;;;;;;;10.62;100.00;101912.09;2086748;28;20049;-78
2023/02/15 03:16:43;;;;;;;10.50;4.95;;;;;;;10.63;100.00;101903.34;2087322;28;20146;-77
2023/02/15 03:18:06;;;;;;;9.38;5.57;;;;;;;10.60;100.00;101906.75;2082492;28;20033;-77
2023/02/15 03:19:32;;;;;;;10.73;5.80;;;;;;;10.59;100.00;101907.59;2083300;28;20041;-77
2023/02/15 03:20:55;;;;;;;12.55;5.93;;;;;;;10.59;100.00;101909.34;2084178;28;20093;-78
2023/02/15 03:22:24;;;;;;;10.30;5.65;;;;;;;10.58;100.00;101912.81;2091687;28;20033;-76
2023/02/15 03:23:45;;;;;;;11.98;5.90;;;;;;;10.56;100.00;101909.25;2100819;28;20047;-77
2023/02/15 03:25:12;;;;;;;12.88;5.70;;;;;;;10.53;100.00;101903.84;2093770;28;20054;-75
2023/02/15 03:26:36;;;;;;;12.27;6.00;;;;;;;10.48;100.00;101901.06;2092358;28;20101;-75
2023/02/15 03:28:03;;;;;;;13.05;5.85;;;;;;;10.47;100.00;101896.63;2094365;28;20051;-75
2023/02/15 03:29:27;;;;;;;11.40;5.78;;;;;;;10.47;100.00;101898.38;2093028;28;20044;-75
2023/02/15 03:30:56;;;;;;;13.18;5.47;;;;;;;10.49;100.00;101896.69;2097486;28;20597;-75
2023/02/15 03:32:18;;;;;;;11.45;6.43;;;;;;;10.49;100.00;101901.97;2094818;28;20672;-75
2023/02/15 03:33:43;;;;;;;;;;;;;;;10.49;100.00;101899.31;2092970;28;20672;-75
2023/02/15 03:35:05;;;;;;;12.40;5.78;;;;;;;10.52;100.00;101902.94;2096636;28;19928;-76
2023/02/15 03:36:33;;;;;;;12.05;6.28;;;;;;;10.55;100.00;101896.88;2096654;28;20135;-75
2023/02/15 03:38:01;;;;;;;11.20;6.03;;;;;;;10.52;100.00;101902.94;2094086;28;20467;-75
2023/02/15 03:39:31;;;;;;;13.25;6.35;;;;;;;10.52;100.00;101905.59;2094399;28;20214;-75
2023/02/15 03:41:11;;;;;;;12.60;5.85;;;;;;;10.52;100.00;101899.41;2093930;28;20045;-75
2023/02/15 03:42:39;;;;;;;11.85;5.40;;;;;;;10.49;100.00;101907.25;2088084;28;20048;-74
2023/02/15 03:44:07;;;;;;;12.55;6.30;;;;;;;10.47;100.00;101907.19;2094799;28;20470;-74
2023/02/15 03:45:33;;;;;;;10.98;5.85;;;;;;;10.46;100.00;101901.84;2095248;28;20129;-75
2023/02/15 03:47:06;;;;;;;12.98;5.85;;;;;;;10.50;100.00;101898.47;2093888;28;20056;-75
2023/02/15 03:48:32;;;;;;;11.73;5.20;;;;;;;10.52;100.00;101896.78;2086459;28;20048;-75
2023/02/15 03:49:59;;;;;;;11.10;5.53;;;;;;;10.53;100.00;101901.22;2092583;28;20060;-75
2023/02/15 03:51:34;;;;;;;11.50;6.03;;;;;;;10.53;100.00;101903.84;2093339;28;20040;-75
2023/02/15 03:52:59;;;;;;;11.43;5.82;;;;;;;10.52;100.00;101904.69;2095677;28;20052;-74
2023/02/15 03:54:43;;;;;;;11.20;5.93;;;;;;;10.49;100.00;101909.88;2085857;28;20044;-75
2023/02/15 03:56:04;;;;;;;11.07;5.43;;;;;;;10.47;100.00;101911.56;2096410;28;20067;-75
2023/02/15 04:02:40;;;;;;;10.40;5.90;;;;;;;10.58;100.00;101916.34;2095212;28;20056;-75
2023/02/15 04:04:07;;;;;;;10.73;6.28;;;;;;;10.58;100.00;101918.09;2094347;28;20044;-75
2023/02/15 04:05:30;;;;;;;8.70;5.15;;;;;;;10.57;100.00;101918.94;2093621;28;20040;-76
2023/02/15 04:06:51;;;;;;;10.57;5.97;;;;;;;10.59;100.00;101917.25;2092623;28;20048;-76
2023/02/15 04:08:14;;;;;;;11.63;6.30;;;;;;;10.61;100.00;101920.84;2085256;28;20057;-75
2023/02/15 04:11:15;;;;;;;12.05;5.47;;;;;;;10.64;100.00;101915.66;2095311;28;20438;-75
2023/02/15 04:12:38;;;;;;;13.50;6.00;;;;;;;10.65;100.00;101921.00;2092108;28;20186;-76
2023/02/15 04:16:02;;;;;;;11.05;5.93;;;;;;;10.66;100.00;101921.91;2102432;28;20130;-75
2023/02/15 04:17:21;;;;;;;18.65;6.18;;;;;;;10.76;100.00;101918.75;2096330;28;20143;-76
2023/02/15 04:25:24;;;;;;;13.13;5.78;;;;;;;11.18;100.00;101945.66;2096332;28;20139;-76
2023/02/15 04:26:47;;;;;;;12.65;5.65;;;;;;;11.24;100.00;101944.94;2093887;28;20040;-76
2023/02/15 04:28:09;;;;;;;9.02;5.43;;;;;;;11.28;100.00;101939.81;2084808;28;20065;-75
2023/02/15 04:29:33;;;;;;;11.05;5.53;;;;;;;11.31;100.00;101939.00;2096804;28;20044;-75
2023/02/15 04:30:55;;;;;;;12.25;5.47;;;;;;;11.34;100.00;101952.34;2096296;28;20519;-76
2023/02/15 04:32:17;;;;;;;9.90;5.75;;;;;;;11.37;100.00;101952.41;2088214;28;20053;-75
2023/02/15 04:33:39;;;;;;;10.88;5.78;;;;;;;11.40;100.00;101953.41;2079752;28;20043;-76
2023/02/15 04:35:00;;;;;;;10.57;5.10;;;;;;;11.41;100.00;101951.69;2090262;28;20452;-75
2023/02/15 04:36:23;;;;;;;9.82;5.20;;;;;;;11.44;100.00;101959.69;2085403;28;20140;-75
2023/02/15 04:37:45;;;;;;;11.15;6.00;;;;;;;11.46;100.00;101956.25;2085918;28;20049;-75
2023/02/15 04:39:08;;;;;;;10.13;5.78;;;;;;;11.50;100.00;101963.41;2092552;28;20389;-76
2023/02/15 04:40:31;;;;;;;11.60;6.25;;;;;;;11.50;100.00;101965.16;2088183;28;20082;-76
2023/02/15 04:41:53;;;;;;;12.75;7.80;;;;;;;11.48;100.00;101970.44;2085417;28;20496;-76
2023/02/15 04:43:15;;;;;;;11.82;5.88;;;;;;;11.49;100.00;101964.25;2093687;28;20052;-76
2023/02/15 04:44:37;;;;;;;12.38;6.82;;;;;;;11.50;100.00;101971.34;2087966;28;20072;-75
2023/02/15 04:45:59;;;;;;;11.00;5.45;;;;;;;11.46;100.00;101965.94;2091909;28;20066;-76
2023/02/15 04:47:21;;;;;;;9.98;5.30;;;;;;;11.43;100.00;101969.38;2092767;28;20040;-75
2023/02/15 04:48:43;;;;;;;11.70;5.28;;;;;;;11.40;100.00;101971.03;2096263;28;20063;-76
2023/02/15 04:50:07;;;;;;;13.23;5.60;;;;;;;11.35;100.00;101964.72;2095367;28;20048;-75
2023/02/15 04:51:28;;;;;;;12.52;5.40;;;;;;;11.32;100.00;101972.53;2102346;28;20040;-76
2023/02/15 04:52:51;;;;;;;10.02;4.63;;;;;;;11.29;100.00;101975.09;2091544;28;20072;-76
2023/02/15 04:54:15;;;;;;;10.77;4.75;;;;;;;11.28;100.00;101968.91;2095206;28;20048;-75
2023/02/15 04:55:36;;;;;;;10.88;5.03;;;;;;;11.27;100.00;101980.31;2106454;28;20094;-75
2023/02/15 04:56:58;;;;;;;11.65;5.10;;;;;;;11.24;100.00;101974.91;2083583;28;20060;-75
2023/02/15 04:58:20;;;;;;;7.25;4.40;;;;;;;11.22;100.00;101971.34;2092855;28;20032;-76
2023/02/15 04:59:42;;;;;;;10.68;4.72;;;;;;;11.19;100.00;101980.06;2093939;28;20527;-76
2023/02/15 05:01:04;;;;;;;10.07;5.05;;;;;;;11.17;100.00;101979.09;2094211;28;20048;-76
2023/02/15 05:02:26;;;;;;;10.65;4.97;;;;;;;11.19;100.00;101982.72;2088711;28;20049;-75
2023/02/15 05:03:48;;;;;;;12.48;5.90;;;;;;;11.21;100.00;101984.50;2094718;28;20575;-75
2023/02/15 05:05:12;;;;;;;10.38;5.65;;;;;;;11.25;100.00;101989.94;2089366;28;20048;-75
2023/02/15 05:06:34;;;;;;;10.32;5.38;;;;;;;11.26;100.00;101997.03;2095743;28;20411;-75
2023/02/15 05:07:57;;;;;;;11.23;5.40;;;;;;;11.26;100.00;101990.84;2093172;28;20467;-76
2023/02/15 05:09:19;;;;;;;10.13;5.63;;;;;;;11.25;100.00;101999.59;2093534;28;20037;-75
2023/02/15 05:10:42;;;;;;;9.43;5.55;;;;;;;11.21;100.00;102003.00;2094335;28;20135;-75
2023/02/15 05:12:05;;;;;;;13.35;6.50;;;;;;;11.17;100.00;102008.19;2089676;28;20072;-76
2023/02/15 05:13:26;;;;;;;12.30;5.95;;;;;;;11.13;100.00;102005.41;2081256;28;20680;-75
2023/02/15 05:14:48;;;;;;;14.57;5.78;;;;;;;11.10;100.00;102006.19;2086948;28;20068;-75
2023/02/15 05:16:09;;;;;;;10.85;5.03;;;;;;;11.10;100.00;102011.47;2095160;28;20052;-75
2023/02/15 05:17:32;;;;;;;11.55;5.38;;;;;;;11.11;100.00;102004.44;2082463;28;21078;-75
2023/02/15 05:18:53;;;;;;;13.10;6.68;;;;;;;11.14;100.00;101999.25;2095185;28;20159;-75
2023/02/15 05:20:15;;;;;;;13.18;6.18;;;;;;;11.16;100.00;101998.44;2089757;28;20051;-75
2023/02/15 05:21:36;;;;;;;12.68;5.22;;;;;;;11.22;100.00;102005.72;2095058;28;20057;-75
2023/02/15 05:22:59;;;;;;;8.93;5.82;;;;;;;11.27;100.00;102008.50;2095102;28;20394;-75
2023/02/15 05:29:22;;;;;;;11.40;5.63;;;;;;;11.51;100.00;102003.97;2105941;28;20056;-76
2023/02/15 05:30:44;;;;;;;12.75;5.90;;;;;;;11.57;100.00;102006.81;2099167;28;20048;-75
2023/02/15 05:32:06;;;;;;;10.90;5.85;;;;;;;11.62;100.00;101977.91;2093486;28;20078;-75
2023/02/15 05:33:28;;;;;;;12.00;5.45;;;;;;;11.67;100.00;102003.63;2094079;28;20157;-76
2023/02/15 05:34:49;;;;;;;11.43;5.95;;;;;;;11.73;100.00;102010.84;2099276;28;20044;-75
2023/02/15 05:36:12;;;;;;;13.38;5.60;;;;;;;11.77;100.00;102010.13;2103243;28;20044;-76
2023/02/15 05:37:34;;;;;;;12.48;5.90;;;;;;;11.79;100.00;102014.63;2088869;28;20049;-75
2023/02/15 05:38:57;;;;;;;12.00;6.10;;;;;;;11.79;100.00;102026.94;2094641;28;20048;-76
2023/02/15 05:40:21;;;;;;;12.15;5.80;;;;;;;11.80;100.00;102023.47;2093643;28;20524;-75
2023/02/15 05:41:43;;;;;;;10.38;5.35;;;;;;;11.84;100.00;102025.34;2095312;28;20063;-75
2023/02/15 05:43:05;;;;;;;17.77;9.73;;;;;;;11.92;100.00;102030.03;2095667;28;20037;-75
2023/02/15 05:44:27;;;;;;;35.75;18.58;;;;;;;11.97;100.00;102028.41;2093229;28;20068;-75
2023/02/15 05:45:52;;;;;;;14.73;9.25;;;;;;;12.02;100.00;102022.34;2094795;28;20556;-75
2023/02/15 05:47:14;;;;;;;14.75;7.00;;;;;;;12.03;100.00;102026.78;2101262;28;20048;-75
2023/02/15 05:48:36;;;;;;;12.45;5.85;;;;;;;12.03;100.00;102029.44;2093744;28;20103;-75
2023/02/15 05:49:58;;;;;;;11.93;5.75;;;;;;;12.06;100.00;102032.19;2095121;28;20616;-75
2023/02/15 05:51:21;;;;;;;11.82;5.80;;;;;;;12.06;100.00;102024.25;2090186;28;20040;-75
2023/02/15 05:52:43;;;;;;;14.07;6.80;;;;;;;12.08;100.00;102039.28;2086107;28;20056;-75
2023/02/15 05:54:05;;;;;;;11.70;6.60;;;;;;;12.09;100.00;102042.84;2084292;28;20397;-76
2023/02/15 05:55:29;;;;;;;11.57;6.10;;;;;;;12.13;100.00;102034.16;2090017;28;20441;-75
2023/02/15 05:56:50;;;;;;;11.73;6.20;;;;;;;12.16;100.00;102040.44;2093999;28;20052;-75
2023/02/15 05:58:13;;;;;;;11.68;6.35;;;;;;;12.19;100.00;102040.53;2100741;28;20466;-76
2023/02/15 05:59:38;;;;;;;10.88;6.38;;;;;;;12.21;100.00;102041.47;2096886;28;20148;-75
2023/02/15 06:01:01;;;;;;;11.90;6.32;;;;;;;12.22;100.00;102039.72;2094662;28;20523;-76
2023/02/15 06:02:23;;;;;;;12.73;6.88;;;;;;;12.21;100.00;102046.75;2097567;28;20102;-75
2023/02/15 06:03:47;;;;;;;12.98;8.63;;;;;;;12.19;100.00;102037.88;2084152;28;20052;-75
2023/02/15 06:05:09;;;;;;;16.25;8.95;;;;;;;12.20;100.00;102042.34;2095349;28;20041;-75
2023/02/15 06:06:32;;;;;;;13.50;7.60;;;;;;;12.21;100.00;102037.91;2086428;28;20065;-75
2023/02/15 06:07:54;;;;;;;14.00;7.95;;;;;;;12.18;100.00;102043.13;2077810;28;20037;-75
2023/02/15 06:09:18;;;;;;;13.25;7.75;;;;;;;12.16;100.00;102034.25;2081111;28;20052;-74
2023/02/15 06:10:41;;;;;;;14.65;7.85;;;;;;;12.18;100.00;102037.84;2086911;28;20600;-74
2023/02/15 06:12:04;;;;;;;16.05;8.35;;;;;;;12.24;100.00;102038.00;2086485;28;20880;-75
2023/02/15 06:13:27;;;;;;;14.00;7.80;;;;;;;12.26;100.00;102037.22;2086637;28;20152;-75
2023/02/15 06:14:49;;;;;;;12.68;7.90;;;;;;;12.24;100.00;102025.69;2086680;28;20056;-75
2023/02/15 06:16:10;;;;;;;16.75;9.65;;;;;;;12.21;100.00;102022.03;2085305;28;20033;-75
2023/02/15 06:17:33;;;;;;;13.98;8.40;;;;;;;12.16;100.00;102019.25;2083513;28;20048;-75
2023/02/15 06:18:54;;;;;;;15.15;7.97;;;;;;;12.14;100.00;102020.09;2086664;28;20456;-75
2023/02/15 06:20:17;;;;;;;13.88;7.03;;;;;;;12.14;100.00;102017.44;2091922;28;20058;-75
2023/02/15 06:21:39;;;;;;;15.43;8.10;;;;;;;12.14;100.00;102005.06;2094846;28;20060;-75
2023/02/15 06:23:02;;;;;;;15.73;7.93;;;;;;;12.20;100.00;102010.56;2088950;28;20045;-76
2023/02/15 06:24:24;;;;;;;19.60;11.50;;;;;;;12.25;100.00;102008.94;2082936;28;20092;-75
2023/02/15 06:25:48;;;;;;;28.60;12.93;;;;;;;12.26;100.00;101997.50;2086251;28;20056;-75
2023/02/15 06:27:12;;;;;;;17.83;8.63;;;;;;;12.28;100.00;102009.00;2089001;28;20029;-75
2023/02/15 06:28:34;;;;;;;15.45;7.90;;;;;;;12.33;100.00;102022.41;2085325;28;20048;-76
2023/02/15 06:29:56;;;;;;;13.00;7.47;;;;;;;12.37;100.00;102001.34;2094679;28;20048;-74
2023/02/15 06:31:19;;;;;;;15.80;8.20;;;;;;;12.39;100.00;101998.75;2088934;28;20098;-76
2023/02/15 06:32:40;;;;;;;12.60;7.82;;;;;;;12.41;100.00;101993.47;2091898;28;20557;-75
2023/02/15 06:34:03;;;;;;;15.15;8.73;;;;;;;12.44;100.00;101982.97;2102758;28;20040;-75
2023/02/15 06:35:25;;;;;;;17.50;8.30;;;;;;;12.47;100.00;101994.53;2102565;28;20459;-74
2023/02/15 06:36:48;;;;;;;14.77;7.22;;;;;;;12.51;100.00;101991.13;2102801;28;20056;-74
2023/02/15 06:38:10;;;;;;;15.15;8.25;;;;;;;12.56;100.00;101993.91;2102901;28;20040;-75
2023/02/15 06:39:33;;;;;;;18.77;8.68;;;;;;;12.58;100.00;101997.50;2102750;28;20048;-75
2023/02/15 06:40:56;;;;;;;16.55;8.30;;;;;;;12.57;100.00;101991.31;2101239;28;20129;-76
2023/02/15 06:42:19;;;;;;;13.02;8.18;;;;;;;12.54;100.00;101993.84;2102518;28;20399;-76
2023/02/15 06:43:41;;;;;;;14.80;9.55;;;;;;;12.56;100.00;101989.50;2094350;28;20409;-75
2023/02/15 06:45:04;;;;;;;14.40;8.65;;;;;;;12.60;100.00;101996.66;2100071;28;20061;-75
2023/02/15 06:46:26;;;;;;;13.00;7.55;;;;;;;12.65;100.00;101988.88;2102980;28;20048;-75
2023/02/15 06:47:47;;;;;;;16.08;9.30;;;;;;;12.73;100.00;102001.44;2102304;28;20115;-75